sensor_id;sensor_type;location;lat;lon;timestamp;P1;durP1;ratioP1;P2;durP2;ratioP2
8293;SDS011;4185;41.506;24.938;2022-09-09T00:02:18;6.13;;;5.53;;
8293;SDS011;4185;41.506;24.938;2022-09-09T00:04:48;6.83;;;6.17;;
8293;SDS011;4185;41.506;24.938;2022-09-09T00:07:25;6.10;;;5.50;;
8293;SDS011;4185;41.506;24.938;2022-09-09T00:10:07;6.63;;;5.93;;
8293;SDS011;4185;41.506;24.938;2022-09-09T00:12:45;6.57;;;5.97;;
8293;SDS011;4185;41.506;24.938;2022-09-09T00:15:23;6.97;;;5.77;;
8293;SDS011;4185;41.506;24.938;2022-09-09T00:17:55;6.77;;;6.07;;
8293;SDS011;4185;41.506;24.938;2022-09-09T00:20:29;9.17;;;6.57;;
8293;SDS011;4185;41.506;24.938;2022-09-09T00:23:04;9.67;;;5.57;;
8293;SDS011;4185;41.506;24.938;2022-09-09T00:25:39;7.20;;;6.07;;
8293;SDS011;4185;41.506;24.938;2022-09-09T00:28:13;6.70;;;6.00;;
8293;SDS011;4185;41.506;24.938;2022-09-09T00:30:45;7.73;;;6.10;;
8293;SDS011;4185;41.506;24.938;2022-09-09T00:33:14;6.33;;;5.73;;
8293;SDS011;4185;41.506;24.938;2022-09-09T00:35:44;5.77;;;5.27;;
8293;SDS011;4185;41.506;24.938;2022-09-09T00:38:13;7.30;;;6.27;;
8293;SDS011;4185;41.506;24.938;2022-09-09T00:40:45;6.77;;;5.83;;
8293;SDS011;4185;41.506;24.938;2022-09-09T00:43:23;6.07;;;5.47;;
8293;SDS011;4185;41.506;24.938;2022-09-09T00:45:59;6.83;;;6.10;;
8293;SDS011;4185;41.506;24.938;2022-09-09T00:48:38;7.20;;;6.40;;
8293;SDS011;4185;41.506;24.938;2022-09-09T00:51:15;6.67;;;5.63;;
8293;SDS011;4185;41.506;24.938;2022-09-09T00:53:56;6.43;;;5.83;;
8293;SDS011;4185;41.506;24.938;2022-09-09T00:56:36;7.70;;;6.37;;
8293;SDS011;4185;41.506;24.938;2022-09-09T00:59:12;6.40;;;5.80;;
8293;SDS011;4185;41.506;24.938;2022-09-09T01:01:51;8.87;;;6.17;;
8293;SDS011;4185;41.506;24.938;2022-09-09T01:04:21;7.00;;;6.30;;
8293;SDS011;4185;41.506;24.938;2022-09-09T01:06:58;7.03;;;6.33;;
8293;SDS011;4185;41.506;24.938;2022-09-09T01:09:34;7.27;;;6.20;;
8293;SDS011;4185;41.506;24.938;2022-09-09T01:12:15;6.97;;;5.87;;
8293;SDS011;4185;41.506;24.938;2022-09-09T01:14:43;6.47;;;5.77;;
8293;SDS011;4185;41.506;24.938;2022-09-09T01:17:15;6.40;;;5.80;;
8293;SDS011;4185;41.506;24.938;2022-09-09T01:19:49;6.80;;;6.20;;
8293;SDS011;4185;41.506;24.938;2022-09-09T01:22:26;6.60;;;5.83;;
8293;SDS011;4185;41.506;24.938;2022-09-09T01:25:09;6.80;;;5.80;;
8293;SDS011;4185;41.506;24.938;2022-09-09T01:27:46;7.50;;;6.63;;
8293;SDS011;4185;41.506;24.938;2022-09-09T01:30:17;7.67;;;6.03;;
8293;SDS011;4185;41.506;24.938;2022-09-09T01:32:45;6.27;;;5.57;;
8293;SDS011;4185;41.506;24.938;2022-09-09T01:35:15;6.70;;;6.07;;
8293;SDS011;4185;41.506;24.938;2022-09-09T01:37:48;9.27;;;6.37;;
8293;SDS011;4185;41.506;24.938;2022-09-09T01:40:15;6.77;;;6.13;;
8293;SDS011;4185;41.506;24.938;2022-09-09T01:42:42;6.40;;;5.47;;
8293;SDS011;4185;41.506;24.938;2022-09-09T01:45:10;6.90;;;5.80;;
8293;SDS011;4185;41.506;24.938;2022-09-09T01:47:37;6.53;;;5.83;;
8293;SDS011;4185;41.506;24.938;2022-09-09T01:50:04;7.53;;;5.77;;
8293;SDS011;4185;41.506;24.938;2022-09-09T01:52:34;7.17;;;6.47;;
8293;SDS011;4185;41.506;24.938;2022-09-09T01:55:02;6.60;;;5.67;;
8293;SDS011;4185;41.506;24.938;2022-09-09T01:57:30;6.87;;;6.20;;
8293;SDS011;4185;41.506;24.938;2022-09-09T02:00:06;6.83;;;6.17;;
8293;SDS011;4185;41.506;24.938;2022-09-09T02:02:38;7.00;;;5.50;;
8293;SDS011;4185;41.506;24.938;2022-09-09T02:05:15;6.47;;;5.87;;
8293;SDS011;4185;41.506;24.938;2022-09-09T02:07:52;6.87;;;6.07;;
8293;SDS011;4185;41.506;24.938;2022-09-09T02:10:27;6.47;;;5.87;;
8293;SDS011;4185;41.506;24.938;2022-09-09T02:12:59;6.23;;;5.63;;
8293;SDS011;4185;41.506;24.938;2022-09-09T02:15:32;7.20;;;5.67;;
8293;SDS011;4185;41.506;24.938;2022-09-09T02:18:08;6.37;;;5.70;;
8293;SDS011;4185;41.506;24.938;2022-09-09T02:20:38;7.20;;;6.13;;
8293;SDS011;4185;41.506;24.938;2022-09-09T02:23:07;6.67;;;6.03;;
8293;SDS011;4185;41.506;24.938;2022-09-09T02:25:35;8.33;;;6.50;;
8293;SDS011;4185;41.506;24.938;2022-09-09T02:28:03;7.57;;;6.57;;
8293;SDS011;4185;41.506;24.938;2022-09-09T02:30:32;7.00;;;6.30;;
8293;SDS011;4185;41.506;24.938;2022-09-09T02:33:02;6.67;;;6.07;;
8293;SDS011;4185;41.506;24.938;2022-09-09T02:35:35;6.93;;;6.33;;
8293;SDS011;4185;41.506;24.938;2022-09-09T02:38:04;7.80;;;6.97;;
8293;SDS011;4185;41.506;24.938;2022-09-09T02:40:33;7.13;;;6.37;;
8293;SDS011;4185;41.506;24.938;2022-09-09T02:43:00;8.33;;;6.80;;
8293;SDS011;4185;41.506;24.938;2022-09-09T02:45:30;7.17;;;6.47;;
8293;SDS011;4185;41.506;24.938;2022-09-09T02:48:03;8.67;;;6.33;;
8293;SDS011;4185;41.506;24.938;2022-09-09T02:50:41;6.90;;;6.20;;
8293;SDS011;4185;41.506;24.938;2022-09-09T02:53:17;6.87;;;5.60;;
8293;SDS011;4185;41.506;24.938;2022-09-09T02:55:46;6.67;;;6.07;;
8293;SDS011;4185;41.506;24.938;2022-09-09T02:58:16;9.97;;;5.87;;
8293;SDS011;4185;41.506;24.938;2022-09-09T03:00:45;7.03;;;6.33;;
8293;SDS011;4185;41.506;24.938;2022-09-09T03:03:13;7.03;;;6.33;;
8293;SDS011;4185;41.506;24.938;2022-09-09T03:05:42;7.23;;;6.37;;
8293;SDS011;4185;41.506;24.938;2022-09-09T03:08:09;6.70;;;6.10;;
8293;SDS011;4185;41.506;24.938;2022-09-09T03:10:38;7.77;;;6.37;;
8293;SDS011;4185;41.506;24.938;2022-09-09T03:13:05;7.83;;;6.70;;
8293;SDS011;4185;41.506;24.938;2022-09-09T03:15:33;7.87;;;6.50;;
8293;SDS011;4185;41.506;24.938;2022-09-09T03:18:00;7.40;;;6.70;;
8293;SDS011;4185;41.506;24.938;2022-09-09T03:20:28;6.87;;;5.93;;
8293;SDS011;4185;41.506;24.938;2022-09-09T03:22:58;6.73;;;5.97;;
8293;SDS011;4185;41.506;24.938;2022-09-09T03:25:26;7.03;;;6.33;;
8293;SDS011;4185;41.506;24.938;2022-09-09T03:27:54;7.80;;;7.00;;
8293;SDS011;4185;41.506;24.938;2022-09-09T03:30:21;7.83;;;6.20;;
8293;SDS011;4185;41.506;24.938;2022-09-09T03:32:48;7.30;;;6.43;;
8293;SDS011;4185;41.506;24.938;2022-09-09T03:35:15;7.73;;;6.90;;
8293;SDS011;4185;41.506;24.938;2022-09-09T03:37:42;6.23;;;5.63;;
8293;SDS011;4185;41.506;24.938;2022-09-09T03:40:11;10.83;;;6.57;;
8293;SDS011;4185;41.506;24.938;2022-09-09T03:42:38;6.93;;;6.23;;
8293;SDS011;4185;41.506;24.938;2022-09-09T03:45:06;7.83;;;6.53;;
8293;SDS011;4185;41.506;24.938;2022-09-09T03:47:35;7.23;;;6.10;;
8293;SDS011;4185;41.506;24.938;2022-09-09T03:50:03;7.63;;;6.87;;
8293;SDS011;4185;41.506;24.938;2022-09-09T03:52:34;6.17;;;5.67;;
8293;SDS011;4185;41.506;24.938;2022-09-09T03:55:01;7.23;;;5.63;;
8293;SDS011;4185;41.506;24.938;2022-09-09T03:57:29;7.83;;;6.13;;
8293;SDS011;4185;41.506;24.938;2022-09-09T03:59:56;6.87;;;6.13;;
8293;SDS011;4185;41.506;24.938;2022-09-09T04:02:26;8.53;;;6.00;;
8293;SDS011;4185;41.506;24.938;2022-09-09T04:04:52;7.03;;;6.17;;
8293;SDS011;4185;41.506;24.938;2022-09-09T04:07:19;6.67;;;6.03;;
8293;SDS011;4185;41.506;24.938;2022-09-09T04:09:46;8.17;;;6.40;;
8293;SDS011;4185;41.506;24.938;2022-09-09T04:12:13;7.70;;;6.03;;
8293;SDS011;4185;41.506;24.938;2022-09-09T04:14:41;7.97;;;6.47;;
8293;SDS011;4185;41.506;24.938;2022-09-09T04:17:08;7.20;;;6.50;;
8293;SDS011;4185;41.506;24.938;2022-09-09T04:19:35;7.87;;;6.03;;
8293;SDS011;4185;41.506;24.938;2022-09-09T04:22:01;8.73;;;6.37;;
8293;SDS011;4185;41.506;24.938;2022-09-09T04:24:29;7.07;;;6.37;;
8293;SDS011;4185;41.506;24.938;2022-09-09T04:26:56;7.67;;;6.20;;
8293;SDS011;4185;41.506;24.938;2022-09-09T04:29:22;6.53;;;5.60;;
8293;SDS011;4185;41.506;24.938;2022-09-09T04:31:51;7.73;;;6.27;;
8293;SDS011;4185;41.506;24.938;2022-09-09T04:34:18;7.53;;;6.13;;
8293;SDS011;4185;41.506;24.938;2022-09-09T04:36:45;6.80;;;6.10;;
8293;SDS011;4185;41.506;24.938;2022-09-09T04:39:11;7.17;;;6.33;;
8293;SDS011;4185;41.506;24.938;2022-09-09T04:41:39;7.30;;;6.57;;
8293;SDS011;4185;41.506;24.938;2022-09-09T04:44:06;7.20;;;6.50;;
8293;SDS011;4185;41.506;24.938;2022-09-09T04:46:33;6.90;;;6.00;;
8293;SDS011;4185;41.506;24.938;2022-09-09T04:49:01;7.20;;;6.50;;
8293;SDS011;4185;41.506;24.938;2022-09-09T04:51:28;7.53;;;6.63;;
8293;SDS011;4185;41.506;24.938;2022-09-09T04:53:56;8.00;;;7.20;;
8293;SDS011;4185;41.506;24.938;2022-09-09T04:56:23;7.67;;;6.30;;
8293;SDS011;4185;41.506;24.938;2022-09-09T04:58:51;8.13;;;6.53;;
8293;SDS011;4185;41.506;24.938;2022-09-09T05:01:19;7.90;;;7.10;;
8293;SDS011;4185;41.506;24.938;2022-09-09T05:03:48;7.50;;;6.80;;
8293;SDS011;4185;41.506;24.938;2022-09-09T05:06:17;7.50;;;6.80;;
8293;SDS011;4185;41.506;24.938;2022-09-09T05:08:45;10.27;;;7.87;;
8293;SDS011;4185;41.506;24.938;2022-09-09T05:11:13;11.67;;;9.50;;
8293;SDS011;4185;41.506;24.938;2022-09-09T05:13:42;8.60;;;7.80;;
8293;SDS011;4185;41.506;24.938;2022-09-09T05:16:09;7.27;;;6.57;;
8293;SDS011;4185;41.506;24.938;2022-09-09T05:18:37;7.87;;;7.03;;
8293;SDS011;4185;41.506;24.938;2022-09-09T05:21:04;7.97;;;6.50;;
8293;SDS011;4185;41.506;24.938;2022-09-09T05:23:32;8.17;;;7.37;;
8293;SDS011;4185;41.506;24.938;2022-09-09T05:26:00;10.90;;;7.30;;
8293;SDS011;4185;41.506;24.938;2022-09-09T05:28:27;10.63;;;7.40;;
8293;SDS011;4185;41.506;24.938;2022-09-09T05:30:56;8.23;;;7.40;;
8293;SDS011;4185;41.506;24.938;2022-09-09T05:33:23;8.47;;;7.17;;
8293;SDS011;4185;41.506;24.938;2022-09-09T05:35:54;7.37;;;6.53;;
8293;SDS011;4185;41.506;24.938;2022-09-09T05:38:22;8.60;;;7.70;;
8293;SDS011;4185;41.506;24.938;2022-09-09T05:40:51;8.30;;;7.50;;
8293;SDS011;4185;41.506;24.938;2022-09-09T05:43:19;8.23;;;7.30;;
8293;SDS011;4185;41.506;24.938;2022-09-09T05:45:46;8.57;;;7.67;;
8293;SDS011;4185;41.506;24.938;2022-09-09T05:48:13;10.67;;;7.97;;
8293;SDS011;4185;41.506;24.938;2022-09-09T05:50:41;9.43;;;8.03;;
8293;SDS011;4185;41.506;24.938;2022-09-09T05:53:09;8.47;;;7.57;;
8293;SDS011;4185;41.506;24.938;2022-09-09T05:55:36;9.17;;;8.27;;
8293;SDS011;4185;41.506;24.938;2022-09-09T05:58:04;8.63;;;7.73;;
8293;SDS011;4185;41.506;24.938;2022-09-09T06:00:31;9.20;;;7.87;;
8293;SDS011;4185;41.506;24.938;2022-09-09T06:02:58;8.83;;;8.00;;
8293;SDS011;4185;41.506;24.938;2022-09-09T06:05:25;10.17;;;8.83;;
8293;SDS011;4185;41.506;24.938;2022-09-09T06:07:53;8.70;;;7.87;;
8293;SDS011;4185;41.506;24.938;2022-09-09T06:10:20;10.07;;;8.60;;
8293;SDS011;4185;41.506;24.938;2022-09-09T06:12:48;8.13;;;7.33;;
8293;SDS011;4185;41.506;24.938;2022-09-09T06:15:16;9.53;;;8.33;;
8293;SDS011;4185;41.506;24.938;2022-09-09T06:17:43;8.87;;;7.97;;
8293;SDS011;4185;41.506;24.938;2022-09-09T06:20:10;7.83;;;7.13;;
8293;SDS011;4185;41.506;24.938;2022-09-09T06:22:39;8.60;;;7.63;;
8293;SDS011;4185;41.506;24.938;2022-09-09T06:25:06;9.90;;;8.00;;
8293;SDS011;4185;41.506;24.938;2022-09-09T06:27:34;10.37;;;8.40;;
8293;SDS011;4185;41.506;24.938;2022-09-09T06:30:01;9.33;;;8.37;;
8293;SDS011;4185;41.506;24.938;2022-09-09T06:32:30;8.93;;;8.00;;
8293;SDS011;4185;41.506;24.938;2022-09-09T06:35:00;9.63;;;8.73;;
8293;SDS011;4185;41.506;24.938;2022-09-09T06:37:27;10.50;;;9.40;;
8293;SDS011;4185;41.506;24.938;2022-09-09T06:39:54;8.87;;;7.97;;
8293;SDS011;4185;41.506;24.938;2022-09-09T06:42:21;8.70;;;7.90;;
8293;SDS011;4185;41.506;24.938;2022-09-09T06:44:48;9.43;;;8.43;;
8293;SDS011;4185;41.506;24.938;2022-09-09T06:47:15;10.43;;;7.63;;
8293;SDS011;4185;41.506;24.938;2022-09-09T06:49:43;10.50;;;8.17;;
8293;SDS011;4185;41.506;24.938;2022-09-09T06:52:10;9.10;;;8.20;;
8293;SDS011;4185;41.506;24.938;2022-09-09T06:54:37;9.10;;;8.17;;
8293;SDS011;4185;41.506;24.938;2022-09-09T06:57:03;8.83;;;7.67;;
8293;SDS011;4185;41.506;24.938;2022-09-09T06:59:32;7.93;;;7.17;;
8293;SDS011;4185;41.506;24.938;2022-09-09T07:01:59;11.17;;;9.87;;
8293;SDS011;4185;41.506;24.938;2022-09-09T07:04:26;11.47;;;8.77;;
8293;SDS011;4185;41.506;24.938;2022-09-09T07:06:54;9.47;;;8.57;;
8293;SDS011;4185;41.506;24.938;2022-09-09T07:09:21;8.87;;;7.97;;
8293;SDS011;4185;41.506;24.938;2022-09-09T07:11:49;9.50;;;8.33;;
8293;SDS011;4185;41.506;24.938;2022-09-09T07:14:17;9.47;;;7.77;;
8293;SDS011;4185;41.506;24.938;2022-09-09T07:16:45;8.80;;;8.00;;
8293;SDS011;4185;41.506;24.938;2022-09-09T07:19:12;10.30;;;8.20;;
8293;SDS011;4185;41.506;24.938;2022-09-09T07:21:40;9.07;;;8.13;;
8293;SDS011;4185;41.506;24.938;2022-09-09T07:24:08;8.30;;;7.47;;
8293;SDS011;4185;41.506;24.938;2022-09-09T07:26:36;8.33;;;7.50;;
8293;SDS011;4185;41.506;24.938;2022-09-09T07:29:04;9.23;;;7.30;;
8293;SDS011;4185;41.506;24.938;2022-09-09T07:31:31;8.00;;;7.20;;
8293;SDS011;4185;41.506;24.938;2022-09-09T07:33:59;8.40;;;7.10;;
8293;SDS011;4185;41.506;24.938;2022-09-09T07:36:26;8.40;;;7.60;;
8293;SDS011;4185;41.506;24.938;2022-09-09T07:38:55;7.87;;;7.07;;
8293;SDS011;4185;41.506;24.938;2022-09-09T07:41:24;8.57;;;7.67;;
8293;SDS011;4185;41.506;24.938;2022-09-09T07:43:53;8.97;;;7.27;;
8293;SDS011;4185;41.506;24.938;2022-09-09T07:46:21;7.93;;;7.13;;
8293;SDS011;4185;41.506;24.938;2022-09-09T07:48:49;8.13;;;7.43;;
8293;SDS011;4185;41.506;24.938;2022-09-09T07:51:18;9.63;;;7.20;;
8293;SDS011;4185;41.506;24.938;2022-09-09T07:53:47;8.77;;;7.77;;
8293;SDS011;4185;41.506;24.938;2022-09-09T07:56:16;8.70;;;7.80;;
8293;SDS011;4185;41.506;24.938;2022-09-09T07:58:46;8.83;;;7.03;;
8293;SDS011;4185;41.506;24.938;2022-09-09T08:01:14;8.57;;;7.77;;
8293;SDS011;4185;41.506;24.938;2022-09-09T08:03:43;9.83;;;8.83;;
8293;SDS011;4185;41.506;24.938;2022-09-09T08:06:10;9.93;;;8.83;;
8293;SDS011;4185;41.506;24.938;2022-09-09T08:08:39;8.03;;;7.17;;
8293;SDS011;4185;41.506;24.938;2022-09-09T08:11:09;7.77;;;7.00;;
8293;SDS011;4185;41.506;24.938;2022-09-09T08:13:40;8.40;;;7.53;;
8293;SDS011;4185;41.506;24.938;2022-09-09T08:16:10;8.17;;;7.27;;
8293;SDS011;4185;41.506;24.938;2022-09-09T08:18:38;7.83;;;7.13;;
8293;SDS011;4185;41.506;24.938;2022-09-09T08:21:06;8.63;;;7.67;;
8293;SDS011;4185;41.506;24.938;2022-09-09T08:23:36;9.43;;;7.73;;
8293;SDS011;4185;41.506;24.938;2022-09-09T08:26:05;9.83;;;7.47;;
8293;SDS011;4185;41.506;24.938;2022-09-09T08:28:34;8.00;;;7.27;;
8293;SDS011;4185;41.506;24.938;2022-09-09T08:31:05;8.30;;;7.50;;
8293;SDS011;4185;41.506;24.938;2022-09-09T08:33:37;7.93;;;7.13;;
8293;SDS011;4185;41.506;24.938;2022-09-09T08:36:05;7.73;;;6.87;;
8293;SDS011;4185;41.506;24.938;2022-09-09T08:38:34;11.43;;;7.57;;
8293;SDS011;4185;41.506;24.938;2022-09-09T08:41:05;7.83;;;6.97;;
8293;SDS011;4185;41.506;24.938;2022-09-09T08:43:45;7.77;;;6.83;;
8293;SDS011;4185;41.506;24.938;2022-09-09T08:46:16;7.90;;;7.20;;
8293;SDS011;4185;41.506;24.938;2022-09-09T08:48:52;7.83;;;7.13;;
8293;SDS011;4185;41.506;24.938;2022-09-09T08:51:26;7.40;;;6.57;;
8293;SDS011;4185;41.506;24.938;2022-09-09T08:53:56;7.73;;;6.60;;
8293;SDS011;4185;41.506;24.938;2022-09-09T08:56:25;7.47;;;6.83;;
8293;SDS011;4185;41.506;24.938;2022-09-09T08:58:54;8.60;;;7.30;;
8293;SDS011;4185;41.506;24.938;2022-09-09T09:01:35;7.83;;;6.23;;
8293;SDS011;4185;41.506;24.938;2022-09-09T09:04:11;7.67;;;6.90;;
8293;SDS011;4185;41.506;24.938;2022-09-09T09:06:50;7.30;;;6.53;;
8293;SDS011;4185;41.506;24.938;2022-09-09T09:09:27;7.50;;;6.73;;
8293;SDS011;4185;41.506;24.938;2022-09-09T09:12:02;7.80;;;7.00;;
8293;SDS011;4185;41.506;24.938;2022-09-09T09:14:41;7.10;;;6.20;;
8293;SDS011;4185;41.506;24.938;2022-09-09T09:17:13;8.07;;;6.37;;
8293;SDS011;4185;41.506;24.938;2022-09-09T09:19:44;7.17;;;6.23;;
8293;SDS011;4185;41.506;24.938;2022-09-09T09:22:14;6.30;;;5.70;;
8293;SDS011;4185;41.506;24.938;2022-09-09T09:24:49;6.50;;;5.90;;
8293;SDS011;4185;41.506;24.938;2022-09-09T09:27:21;7.07;;;5.67;;
8293;SDS011;4185;41.506;24.938;2022-09-09T09:29:57;5.90;;;5.30;;
8293;SDS011;4185;41.506;24.938;2022-09-09T09:32:28;6.30;;;5.13;;
8293;SDS011;4185;41.506;24.938;2022-09-09T09:34:59;6.37;;;5.77;;
8293;SDS011;4185;41.506;24.938;2022-09-09T09:37:33;6.50;;;5.37;;
8293;SDS011;4185;41.506;24.938;2022-09-09T09:40:10;6.33;;;5.10;;
8293;SDS011;4185;41.506;24.938;2022-09-09T09:42:37;6.03;;;5.23;;
8293;SDS011;4185;41.506;24.938;2022-09-09T09:45:14;10.13;;;7.53;;
8293;SDS011;4185;41.506;24.938;2022-09-09T09:47:58;5.57;;;5.07;;
8293;SDS011;4185;41.506;24.938;2022-09-09T09:50:27;7.67;;;5.57;;
8293;SDS011;4185;41.506;24.938;2022-09-09T09:52:54;7.03;;;5.10;;
8293;SDS011;4185;41.506;24.938;2022-09-09T09:55:22;5.70;;;5.13;;
8293;SDS011;4185;41.506;24.938;2022-09-09T09:57:51;5.63;;;4.80;;
8293;SDS011;4185;41.506;24.938;2022-09-09T10:00:19;6.87;;;5.53;;
8293;SDS011;4185;41.506;24.938;2022-09-09T10:02:48;5.77;;;5.13;;
8293;SDS011;4185;41.506;24.938;2022-09-09T10:05:19;5.07;;;4.67;;
8293;SDS011;4185;41.506;24.938;2022-09-09T10:07:59;6.93;;;4.87;;
8293;SDS011;4185;41.506;24.938;2022-09-09T10:10:36;4.95;;;4.55;;
8293;SDS011;4185;41.506;24.938;2022-09-09T10:13:18;6.95;;;4.60;;
8293;SDS011;4185;41.506;24.938;2022-09-09T10:15:52;5.45;;;4.70;;
8293;SDS011;4185;41.506;24.938;2022-09-09T10:18:35;6.70;;;4.68;;
8293;SDS011;4185;41.506;24.938;2022-09-09T10:21:16;5.82;;;4.65;;
8293;SDS011;4185;41.506;24.938;2022-09-09T10:24:05;7.43;;;4.82;;
8293;SDS011;4185;41.506;24.938;2022-09-09T10:26:46;4.65;;;4.25;;
8293;SDS011;4185;41.506;24.938;2022-09-09T10:29:28;6.10;;;4.60;;
8293;SDS011;4185;41.506;24.938;2022-09-09T10:32:07;5.82;;;4.93;;
8293;SDS011;4185;41.506;24.938;2022-09-09T10:34:52;5.03;;;4.57;;
8293;SDS011;4185;41.506;24.938;2022-09-09T10:37:29;6.68;;;4.78;;
8293;SDS011;4185;41.506;24.938;2022-09-09T10:40:15;5.07;;;4.53;;
8293;SDS011;4185;41.506;24.938;2022-09-09T10:42:55;6.32;;;4.50;;
8293;SDS011;4185;41.506;24.938;2022-09-09T10:45:32;6.65;;;4.65;;
8293;SDS011;4185;41.506;24.938;2022-09-09T10:48:11;4.70;;;4.30;;
8293;SDS011;4185;41.506;24.938;2022-09-09T10:50:53;6.65;;;4.70;;
8293;SDS011;4185;41.506;24.938;2022-09-09T10:53:31;4.22;;;3.83;;
8293;SDS011;4185;41.506;24.938;2022-09-09T10:56:03;6.28;;;4.20;;
8293;SDS011;4185;41.506;24.938;2022-09-09T10:58:35;6.80;;;4.40;;
8293;SDS011;4185;41.506;24.938;2022-09-09T11:01:10;7.45;;;4.40;;
8293;SDS011;4185;41.506;24.938;2022-09-09T11:03:42;8.07;;;4.78;;
8293;SDS011;4185;41.506;24.938;2022-09-09T11:06:16;8.40;;;4.15;;
8293;SDS011;4185;41.506;24.938;2022-09-09T11:08:47;7.63;;;4.25;;
8293;SDS011;4185;41.506;24.938;2022-09-09T11:11:16;4.82;;;4.25;;
8293;SDS011;4185;41.506;24.938;2022-09-09T11:13:47;7.95;;;4.28;;
8293;SDS011;4185;41.506;24.938;2022-09-09T11:16:22;5.75;;;4.13;;
8293;SDS011;4185;41.506;24.938;2022-09-09T11:18:55;4.75;;;4.20;;
8293;SDS011;4185;41.506;24.938;2022-09-09T11:21:27;4.43;;;3.95;;
8293;SDS011;4185;41.506;24.938;2022-09-09T11:24:01;5.53;;;4.30;;
8293;SDS011;4185;41.506;24.938;2022-09-09T11:26:32;4.35;;;3.97;;
8293;SDS011;4185;41.506;24.938;2022-09-09T11:29:09;9.27;;;4.22;;
8293;SDS011;4185;41.506;24.938;2022-09-09T11:31:53;5.78;;;4.47;;
8293;SDS011;4185;41.506;24.938;2022-09-09T11:34:36;8.57;;;4.78;;
8293;SDS011;4185;41.506;24.938;2022-09-09T11:37:23;5.40;;;4.82;;
8293;SDS011;4185;41.506;24.938;2022-09-09T11:40:21;5.38;;;4.88;;
8293;SDS011;4185;41.506;24.938;2022-09-09T11:43:00;5.13;;;4.43;;
8293;SDS011;4185;41.506;24.938;2022-09-09T11:45:30;5.72;;;4.70;;
8293;SDS011;4185;41.506;24.938;2022-09-09T11:47:58;5.68;;;4.28;;
8293;SDS011;4185;41.506;24.938;2022-09-09T11:50:31;4.53;;;4.13;;
8293;SDS011;4185;41.506;24.938;2022-09-09T11:56:06;6.63;;;4.70;;
8293;SDS011;4185;41.506;24.938;2022-09-09T11:58:41;4.65;;;4.25;;
8293;SDS011;4185;41.506;24.938;2022-09-09T12:04:16;8.50;;;4.70;;
8293;SDS011;4185;41.506;24.938;2022-09-09T12:06:54;4.78;;;4.05;;
8293;SDS011;4185;41.506;24.938;2022-09-09T12:09:27;5.22;;;4.72;;
8293;SDS011;4185;41.506;24.938;2022-09-09T12:14:55;7.03;;;4.63;;
8293;SDS011;4185;41.506;24.938;2022-09-09T12:17:27;4.22;;;3.83;;
8293;SDS011;4185;41.506;24.938;2022-09-09T12:20:03;6.28;;;4.05;;
8293;SDS011;4185;41.506;24.938;2022-09-09T12:22:37;6.80;;;4.30;;
8293;SDS011;4185;41.506;24.938;2022-09-09T12:25:16;4.88;;;4.10;;
8293;SDS011;4185;41.506;24.938;2022-09-09T12:27:55;5.50;;;3.90;;
8293;SDS011;4185;41.506;24.938;2022-09-09T12:30:32;9.68;;;6.22;;
8293;SDS011;4185;41.506;24.938;2022-09-09T12:33:08;5.20;;;4.60;;
8293;SDS011;4185;41.506;24.938;2022-09-09T12:35:39;6.40;;;4.65;;
8293;SDS011;4185;41.506;24.938;2022-09-09T12:38:09;7.85;;;4.13;;
8293;SDS011;4185;41.506;24.938;2022-09-09T12:40:43;6.97;;;4.05;;
8293;SDS011;4185;41.506;24.938;2022-09-09T12:43:22;5.80;;;4.20;;
8293;SDS011;4185;41.506;24.938;2022-09-09T12:45:51;5.78;;;4.60;;
8293;SDS011;4185;41.506;24.938;2022-09-09T12:48:25;5.75;;;4.45;;
8293;SDS011;4185;41.506;24.938;2022-09-09T12:50:56;5.53;;;4.28;;
8293;SDS011;4185;41.506;24.938;2022-09-09T12:53:25;5.97;;;4.07;;
8293;SDS011;4185;41.506;24.938;2022-09-09T12:55:56;6.32;;;4.07;;
8293;SDS011;4185;41.506;24.938;2022-09-09T12:58:25;6.28;;;4.35;;
8293;SDS011;4185;41.506;24.938;2022-09-09T13:00:58;5.70;;;4.60;;
8293;SDS011;4185;41.506;24.938;2022-09-09T13:03:26;5.88;;;4.00;;
8293;SDS011;4185;41.506;24.938;2022-09-09T13:05:53;5.78;;;3.97;;
8293;SDS011;4185;41.506;24.938;2022-09-09T13:08:25;7.40;;;3.83;;
8293;SDS011;4185;41.506;24.938;2022-09-09T13:10:55;5.10;;;4.15;;
8293;SDS011;4185;41.506;24.938;2022-09-09T13:13:30;5.55;;;3.55;;
8293;SDS011;4185;41.506;24.938;2022-09-09T13:16:04;8.73;;;3.80;;
8293;SDS011;4185;41.506;24.938;2022-09-09T13:18:34;5.13;;;3.42;;
8293;SDS011;4185;41.506;24.938;2022-09-09T13:21:03;7.05;;;3.75;;
8293;SDS011;4185;41.506;24.938;2022-09-09T13:23:32;7.03;;;3.33;;
8293;SDS011;4185;41.506;24.938;2022-09-09T13:26:02;8.05;;;4.05;;
8293;SDS011;4185;41.506;24.938;2022-09-09T13:28:32;8.13;;;4.00;;
8293;SDS011;4185;41.506;24.938;2022-09-09T13:31:00;4.65;;;3.42;;
8293;SDS011;4185;41.506;24.938;2022-09-09T13:33:30;4.70;;;4.28;;
8293;SDS011;4185;41.506;24.938;2022-09-09T13:35:59;4.55;;;3.55;;
8293;SDS011;4185;41.506;24.938;2022-09-09T13:38:29;9.27;;;4.22;;
8293;SDS011;4185;41.506;24.938;2022-09-09T13:40:59;8.82;;;3.72;;
8293;SDS011;4185;41.506;24.938;2022-09-09T13:43:28;6.57;;;3.58;;
8293;SDS011;4185;41.506;24.938;2022-09-09T13:45:59;5.47;;;3.83;;
8293;SDS011;4185;41.506;24.938;2022-09-09T13:48:27;6.18;;;3.97;;
8293;SDS011;4185;41.506;24.938;2022-09-09T13:50:56;5.47;;;3.65;;
8293;SDS011;4185;41.506;24.938;2022-09-09T13:53:25;5.28;;;3.70;;
8293;SDS011;4185;41.506;24.938;2022-09-09T13:55:52;8.93;;;4.53;;
8293;SDS011;4185;41.506;24.938;2022-09-09T13:58:19;4.53;;;3.78;;
8293;SDS011;4185;41.506;24.938;2022-09-09T14:00:48;4.45;;;3.58;;
8293;SDS011;4185;41.506;24.938;2022-09-09T14:03:16;7.97;;;3.75;;
8293;SDS011;4185;41.506;24.938;2022-09-09T14:05:43;6.47;;;3.80;;
8293;SDS011;4185;41.506;24.938;2022-09-09T14:08:14;7.70;;;4.13;;
8293;SDS011;4185;41.506;24.938;2022-09-09T14:10:46;5.20;;;3.92;;
8293;SDS011;4185;41.506;24.938;2022-09-09T14:13:13;5.85;;;3.63;;
8293;SDS011;4185;41.506;24.938;2022-09-09T14:15:40;7.30;;;3.80;;
8293;SDS011;4185;41.506;24.938;2022-09-09T14:18:08;8.10;;;3.30;;
8293;SDS011;4185;41.506;24.938;2022-09-09T14:20:38;10.07;;;3.60;;
8293;SDS011;4185;41.506;24.938;2022-09-09T14:23:05;6.63;;;3.63;;
8293;SDS011;4185;41.506;24.938;2022-09-09T14:25:36;6.45;;;4.00;;
8293;SDS011;4185;41.506;24.938;2022-09-09T14:28:03;4.43;;;3.50;;
8293;SDS011;4185;41.506;24.938;2022-09-09T14:30:29;7.18;;;4.18;;
8293;SDS011;4185;41.506;24.938;2022-09-09T14:32:56;9.43;;;3.95;;
8293;SDS011;4185;41.506;24.938;2022-09-09T14:35:23;5.72;;;3.45;;
8293;SDS011;4185;41.506;24.938;2022-09-09T14:37:51;5.80;;;3.75;;
8293;SDS011;4185;41.506;24.938;2022-09-09T14:40:18;6.63;;;3.90;;
8293;SDS011;4185;41.506;24.938;2022-09-09T14:42:45;10.80;;;5.15;;
8293;SDS011;4185;41.506;24.938;2022-09-09T14:45:12;8.50;;;3.78;;
8293;SDS011;4185;41.506;24.938;2022-09-09T14:47:39;6.28;;;4.10;;
8293;SDS011;4185;41.506;24.938;2022-09-09T14:50:06;14.13;;;4.60;;
8293;SDS011;4185;41.506;24.938;2022-09-09T14:52:33;6.60;;;4.25;;
8293;SDS011;4185;41.506;24.938;2022-09-09T14:55:01;5.63;;;3.70;;
8293;SDS011;4185;41.506;24.938;2022-09-09T14:57:28;12.38;;;4.90;;
8293;SDS011;4185;41.506;24.938;2022-09-09T14:59:55;15.20;;;5.93;;
8293;SDS011;4185;41.506;24.938;2022-09-09T15:02:22;6.57;;;4.05;;
8293;SDS011;4185;41.506;24.938;2022-09-09T15:04:49;6.55;;;4.20;;
8293;SDS011;4185;41.506;24.938;2022-09-09T15:07:17;23.90;;;7.53;;
8293;SDS011;4185;41.506;24.938;2022-09-09T15:09:44;10.25;;;4.30;;
8293;SDS011;4185;41.506;24.938;2022-09-09T15:12:14;8.30;;;4.22;;
8293;SDS011;4185;41.506;24.938;2022-09-09T15:14:42;5.47;;;4.07;;
8293;SDS011;4185;41.506;24.938;2022-09-09T15:17:09;4.97;;;4.35;;
8293;SDS011;4185;41.506;24.938;2022-09-09T15:19:36;5.32;;;3.90;;
8293;SDS011;4185;41.506;24.938;2022-09-09T15:22:03;5.28;;;3.55;;
8293;SDS011;4185;41.506;24.938;2022-09-09T15:24:32;9.00;;;4.00;;
8293;SDS011;4185;41.506;24.938;2022-09-09T15:26:59;6.72;;;3.90;;
8293;SDS011;4185;41.506;24.938;2022-09-09T15:29:28;5.32;;;3.85;;
8293;SDS011;4185;41.506;24.938;2022-09-09T15:31:55;5.88;;;4.30;;